Heigaki, Japan

4:07 PM JST on February 18, 2018 (GMT +0900)
Garraway Place | | Change Station

Elev 32 ft 35.16 °N, 138.68 °E | Updated 1 minute ago

Clear
Clear
50.0 °F
Feels Like 47 °F
N
6.8
Wind Variable Wind from West
Gusts 12.4 mph

Today
High -- | Low -- °F
--% Chance of Precip.
Yesterday
High -- | Low -- °F
Precip. -- in
Pressure 30.04 in
Visibility 6.2 miles
Clouds Few 3000 ft
Windchill 47 °F
Dew Point 30 °F
Humidity 46%
Rainfall 0.00 in
Snow Depth Not available.
6:28 AM 5:30 PM
Waxing Crescent, 6% visible
METAR RJTO 180600Z 06007KT 010V110 9999 FEW030 07/M04 Q1017
Pressure 30.04 in
Visibility 6.2 miles
Clouds Few 3000 ft
Windchill 47 °F
Dew Point 30 °F
Humidity 46%
Rainfall 0.00 in
Snow Depth Not available.
6:28 AM 5:30 PM
Waxing Crescent, 6% visible
METAR RJTO 180600Z 06007KT 010V110 9999 FEW030 07/M04 Q1017

Get Severe Weather Alerts

Thanks for signing up!

Be on the lookout for a verification email in your inbox.

You'll start receiving the daily forecast at 6 AM.

×

10-Day Weather Forecast

No radar image for this location.
×

Almanac

Astronomy

Feb. 18, 2018 Rise Set
Actual Time
Civil Twilight
Nautical Twilight
Astronomical Twilight
Moon
Length of Visible Light
Length of Day
Tomorrow will be .
, % of the Moon is Illuminated

Today's Extremes

Country Highs Country Lows

Community

WunderPhotos

Category 6

Welcome to Category 6. This is the collective home for Weather Underground's featured writeups by Dr. Jeff Masters (right), Bob Henson (left), Chris Burt, and other regular contributors.

Nearby

Air Quality

  Air Quality AQ Index Pollutant
Not available.

Snow Depth

Station Depth Elevation

Earthquake Activity

City Distance Mag. Time & Date
Minimum magnitude displayed is 2.5.

Coastal Water Temperatures

Place Temperature

Stations

Nearby Weather Stations

Station Location Temp. Windchill Dew Point Humidity Wind Precip. Elev Updated Type